Detall de PIREP

Printer-friendly versionPDF version

[2011/02/19 18:12:00]
Flight IATA:CT1001
Pilot Number:026
Company ICAO:CAT
Aircraft Type:DC85/A
PAX:132
Departing Airport: LEMH
Destination Airport: LFKJ
Alternate Airport:LIEO
Online: VATSIM
Route:MEROS B16 LUMAS UT16 TINOT
Flight Level:F240
No Slew and time accel
No pause
Crash detect
Detect pilot in Cockpit between each 30 and 45 minutes
18:12 Zero fuel Weight: 179445 Lbs, Fuel Weight: 24016 Lbs
18:12 VATSIM:LEMH 191800Z 22003KT CAVOK 12/11 Q1015
18:12 VATSIM:LFKJ 191800Z 12003KT 9999 FEW015 SCT250 11/09 Q1013 NOSIG
18:12 VOICE CATALONIAN / MEDITERRANEAN ODYSSEY
18:20 Parking Brakes off
18:27 Take-off
18:27 Take off Weight: 202556 Lbs
18:27 Wind: 221º @ 003 Knots Heading: 008º
18:27 POS N39º 52´ 20´´ E004º 13´ 14´´
18:27 Gear Up: 157 Knots
18:27 Flaps:3 at 157 Knots
18:27 Flaps:2 at 160 Knots
18:27 Flaps:1 at 180 Knots
18:28 Flaps:0 at 191 Knots
18:40 TOC
18:40 Fuel Weight: 19433 Lb
18:42 Wind:262º@010 Knots Heading: 009º Ground Speed: 430 Knots Altitude 24002 ft
18:57 Wind:348º@052 Knots Heading: 092º Ground Speed: 455 Knots Altitude 23979 ft
19:00 TOD
19:00 Fuel Weight: 14504 Lb
19:12 Wind:248º@002 Knots Heading: 110º Ground Speed: 267 Knots Altitude 7424 ft
19:17 Flaps:1 at 177 Knots
19:19 Flaps:5 at 189 Knots
19:19 Flaps:4 at 187 Knots
19:19 Flaps:3 at 186 Knots
19:19 Flaps:2 at 183 Knots
19:19 Flaps:1 at 183 Knots
19:24 Gear Down: 182 Knots
19:24 Flaps:2 at 185 Knots
19:24 Flaps:3 at 165 Knots
19:26 Flaps:4 at 143 Knots
19:27 Wind:060º@003 Knots Heading: 025º Ground Speed: 137 Knots Altitude 380 ft
19:27 Flaps:5 at 141 Knots
19:27 TouchDown:Rate -205 ft/min Speed: 133 Knots
19:27 VATSIM:LFKJ 191900Z 06003KT 9999 BKN017 SCT250 10/08 Q1014 NOSIG
19:27 Land
19:27 Wind:060º@003 Knots
19:27 Heading: 025º
19:27 Flight Duration: 01:00
19:27 Landing Weight: 191117 Lbs
19:27 POS N41º 55´ 22´´ E008º 48´ 06´´
19:33 Parking brakes on
19:33 Block to Block Duration: 01:13
19:33 Final Fuel: 11137 Lbls
19:33 Spent Fuel: 12879 Lbls
19:33 Flight Length: 341 NM
19:33 TOD Land Length: 125 NM

Exportar CSV

Powered by Drupal - Modified by Danger4k